Time;durP1;ratioP1;P1;durP2;ratioP2;P2;SDS_P1;SDS_P2;PMS_P1;PMS_P2;Temp;Humidity;BMP_temperature;BMP_pressure;BME280_temperature;BME280_humidity;BME280_pressure;Samples;Min_cycle;Max_cycle;Signal;HPM_P1;HPM_P2
2022/05/08 00:00:10;;;;;;;13.77;11.67;;;10.90;37.30;;;;;;5074290;28;20675;-71
2022/05/08 00:02:36;;;;;;;12.67;11.20;;;10.90;38.30;;;;;;5074872;28;20669;-71
2022/05/08 00:05:01;;;;;;;16.57;10.13;;;10.80;39.00;;;;;;5075506;28;20434;-71
2022/05/08 00:07:27;;;;;;;14.43;11.40;;;10.70;38.30;;;;;;5074596;28;20225;-71
2022/05/08 00:09:52;;;;;;;12.60;11.30;;;10.70;38.90;;;;;;5074488;28;20294;-70
2022/05/08 00:12:18;;;;;;;13.97;12.27;;;10.60;39.00;;;;;;5076236;28;20296;-72
2022/05/08 00:14:45;;;;;;;11.63;10.40;;;10.60;39.70;;;;;;5075613;28;20177;-71
2022/05/08 00:17:11;;;;;;;13.17;11.40;;;10.60;39.50;;;;;;5075067;28;20805;-71
2022/05/08 00:19:49;;;;;;;11.30;10.10;;;10.60;39.40;;;;;;5072979;28;20450;-71
2022/05/08 00:22:15;;;;;;;11.53;10.40;;;10.60;39.50;;;;;;5074622;28;20419;-72
2022/05/08 00:24:40;;;;;;;11.43;10.27;;;10.50;39.30;;;;;;5074851;28;20783;-71
2022/05/08 00:27:06;;;;;;;11.37;10.07;;;10.50;39.60;;;;;;5074801;28;20265;-70
2022/05/08 00:29:32;;;;;;;11.97;10.87;;;10.50;39.70;;;;;;5074542;28;20491;-71
2022/05/08 00:31:58;;;;;;;12.27;11.00;;;10.40;39.80;;;;;;5074985;28;20453;-72
2022/05/08 00:34:24;;;;;;;12.00;10.20;;;10.40;40.10;;;;;;5075549;28;20422;-70
2022/05/08 00:36:49;;;;;;;13.50;9.70;;;10.30;40.10;;;;;;5074887;28;20573;-71
2022/05/08 00:39:18;;;;;;;17.60;13.37;;;10.30;40.10;;;;;;5073572;28;20185;-70
2022/05/08 00:41:45;;;;;;;19.03;12.00;;;10.30;39.90;;;;;;5074577;28;20177;-70
2022/05/08 00:44:11;;;;;;;10.97;9.83;;;10.20;40.10;;;;;;5074634;28;20420;-71
2022/05/08 00:46:36;;;;;;;12.37;9.70;;;10.20;40.00;;;;;;5073850;28;20988;-71
2022/05/08 00:49:02;;;;;;;10.77;9.30;;;10.20;40.00;;;;;;5074222;28;20208;-71
2022/05/08 00:51:28;;;;;;;15.03;11.47;;;10.20;40.00;;;;;;5073507;28;20285;-70
2022/05/08 00:53:56;;;;;;;12.20;10.13;;;10.10;40.00;;;;;;5073402;28;20173;-71
2022/05/08 00:56:22;;;;;;;13.60;10.53;;;10.10;40.90;;;;;;5073795;28;20174;-70
2022/05/08 00:58:50;;;;;;;13.10;11.60;;;10.00;41.20;;;;;;5074314;28;20410;-71
2022/05/08 01:01:16;;;;;;;12.10;10.80;;;10.00;41.30;;;;;;5071960;28;20195;-71
2022/05/08 01:03:43;;;;;;;15.23;11.03;;;10.00;40.60;;;;;;5073163;28;20509;-71
2022/05/08 01:06:11;;;;;;;12.97;8.97;;;9.90;42.20;;;;;;5073372;28;20425;-71
2022/05/08 01:08:38;;;;;;;12.57;10.83;;;9.90;42.20;;;;;;5072574;28;20413;-71
2022/05/08 01:11:05;;;;;;;12.27;10.47;;;10.00;41.30;;;;;;5072598;28;20423;-70
2022/05/08 01:13:31;;;;;;;12.00;9.93;;;9.90;42.20;;;;;;5071875;28;20849;-71
2022/05/08 01:15:57;;;;;;;10.80;9.43;;;9.90;42.20;;;;;;5073553;28;20506;-70
2022/05/08 01:18:23;;;;;;;11.80;9.03;;;9.90;41.60;;;;;;5073816;28;20182;-70
2022/05/08 01:20:50;;;;;;;9.20;8.13;;;9.90;42.00;;;;;;5072972;28;20441;-70
2022/05/08 01:23:18;;;;;;;14.30;11.90;;;9.90;41.50;;;;;;5074941;28;20408;-70
2022/05/08 01:25:54;;;;;;;10.83;9.13;;;9.80;41.80;;;;;;5073643;28;20929;-70
2022/05/08 01:28:21;;;;;;;17.40;10.00;;;9.80;42.10;;;;;;5075422;28;20911;-70
2022/05/08 01:30:52;;;;;;;11.13;9.80;;;9.90;42.20;;;;;;5077589;28;20475;-70
2022/05/08 01:33:18;;;;;;;9.10;7.77;;;10.00;40.80;;;;;;5079564;28;20430;-71
2022/05/08 01:35:44;;;;;;;22.50;9.37;;;10.00;39.80;;;;;;5075382;28;20436;-70
2022/05/08 01:38:14;;;;;;;9.50;8.50;;;9.90;40.80;;;;;;5072789;28;20460;-72
2022/05/08 01:40:41;;;;;;;10.83;9.73;;;9.80;40.90;;;;;;5071296;28;20528;-71
2022/05/08 01:43:07;;;;;;;11.57;9.00;;;9.80;41.60;;;;;;5072662;28;20420;-72
2022/05/08 01:45:33;;;;;;;10.90;8.83;;;9.80;42.10;;;;;;5073416;28;20418;-71
2022/05/08 01:50:43;;;;;;;11.43;9.20;;;9.80;41.40;;;;;;5072207;28;20435;-70
2022/05/08 01:53:09;;;;;;;8.80;7.30;;;9.80;41.80;;;;;;5072187;28;20829;-71
2022/05/08 01:55:35;;;;;;;9.97;8.97;;;9.80;41.80;;;;;;5072348;28;20539;-71
2022/05/08 01:58:01;;;;;;;10.60;8.50;;;9.80;42.00;;;;;;5072540;28;20515;-71
2022/05/08 02:00:28;;;;;;;8.20;7.20;;;9.70;41.30;;;;;;5072836;28;20225;-71
2022/05/08 02:02:57;;;;;;;11.67;9.80;;;9.70;42.00;;;;;;5074755;28;20426;-71
2022/05/08 02:05:23;;;;;;;10.50;9.40;;;9.70;42.00;;;;;;5075399;28;20421;-70
2022/05/08 02:07:49;;;;;;;9.20;8.00;;;9.60;41.90;;;;;;5074481;28;20412;-70
2022/05/08 02:10:17;;;;;;;12.37;9.30;;;9.50;42.10;;;;;;5075412;28;20640;-70
2022/05/08 02:12:43;;;;;;;12.37;10.13;;;9.50;42.50;;;;;;5075545;28;20451;-70
2022/05/08 02:15:10;;;;;;;9.90;8.90;;;9.60;42.70;;;;;;5075338;28;20410;-70
2022/05/08 02:17:36;;;;;;;13.00;8.57;;;9.70;42.00;;;;;;5075386;28;20428;-72
2022/05/08 02:20:03;;;;;;;12.63;10.97;;;9.60;42.00;;;;;;5073731;28;20549;-71
2022/05/08 02:22:28;;;;;;;9.60;8.33;;;9.60;41.90;;;;;;5072363;28;20445;-71
2022/05/08 02:24:54;;;;;;;11.50;10.30;;;9.50;41.80;;;;;;5072525;28;20987;-72
2022/05/08 02:27:20;;;;;;;13.03;9.87;;;9.40;42.40;;;;;;5070508;28;20583;-71
2022/05/08 02:29:49;;;;;;;12.83;9.33;;;9.40;42.90;;;;;;5071998;28;20206;-71
2022/05/08 02:32:15;;;;;;;12.40;8.57;;;9.50;42.70;;;;;;5073208;28;20199;-71
2022/05/08 02:34:41;;;;;;;12.33;10.10;;;9.40;42.70;;;;;;5075272;28;20497;-70
2022/05/08 02:37:08;;;;;;;9.47;8.50;;;9.40;43.40;;;;;;5075310;28;20451;-70
2022/05/08 02:39:34;;;;;;;10.97;8.63;;;9.40;42.40;;;;;;5074289;28;20723;-71
2022/05/08 02:41:59;;;;;;;10.27;9.10;;;9.50;41.80;;;;;;5075474;28;20443;-70
2022/05/08 02:44:25;;;;;;;12.10;10.27;;;9.40;42.10;;;;;;5075538;28;20413;-70
2022/05/08 02:46:50;;;;;;;11.50;7.87;;;9.40;43.40;;;;;;5075936;28;20179;-70
2022/05/08 02:49:16;;;;;;;10.60;8.93;;;9.40;42.70;;;;;;5074626;28;20208;-70
2022/05/08 02:51:42;;;;;;;9.30;8.07;;;9.40;42.80;;;;;;5074804;28;20298;-69
2022/05/08 02:54:07;;;;;;;10.50;8.43;;;9.30;42.90;;;;;;5074832;28;20179;-69
2022/05/08 02:59:17;;;;;;;9.93;7.97;;;9.30;42.90;;;;;;5075113;28;20207;-69
2022/05/08 03:01:43;;;;;;;12.63;9.60;;;9.10;43.70;;;;;;5073494;28;20428;-69
2022/05/08 03:04:08;;;;;;;10.87;8.47;;;9.20;43.40;;;;;;5074553;28;20186;-69
2022/05/08 03:06:34;;;;;;;15.27;10.40;;;9.10;43.20;;;;;;5075936;28;20178;-69
2022/05/08 03:09:00;;;;;;;12.33;9.10;;;9.20;43.80;;;;;;5074823;28;20239;-69
2022/05/08 03:11:26;;;;;;;10.13;8.53;;;9.20;43.10;;;;;;5075811;28;20256;-70
2022/05/08 03:13:53;;;;;;;9.50;7.67;;;9.10;43.20;;;;;;5077158;28;20178;-70
2022/05/08 03:16:19;;;;;;;10.07;8.20;;;9.10;43.10;;;;;;5077917;28;20448;-70
2022/05/08 03:18:45;;;;;;;11.00;8.17;;;9.10;43.20;;;;;;5076818;28;20483;-71
2022/05/08 03:21:12;;;;;;;13.03;8.50;;;9.10;43.10;;;;;;5075947;28;20495;-71
2022/05/08 03:23:39;;;;;;;11.50;10.27;;;9.00;43.30;;;;;;5074472;28;20677;-70
2022/05/08 03:26:05;;;;;;;11.37;8.20;;;9.00;43.50;;;;;;5075829;28;20424;-71
2022/05/08 03:28:33;;;;;;;10.20;8.80;;;9.10;43.30;;;;;;5074576;28;20502;-71
2022/05/08 03:30:59;;;;;;;10.97;9.83;;;9.10;43.40;;;;;;5073981;28;20498;-70
2022/05/08 03:33:43;;;;;;;11.00;9.90;;;9.00;43.90;;;;;;5074585;28;20416;-70
2022/05/08 03:36:12;;;;;;;11.87;9.73;;;9.00;43.80;;;;;;5073649;28;20202;-70
2022/05/08 03:38:44;;;;;;;13.13;10.37;;;9.00;43.70;;;;;;5073924;28;20416;-71
2022/05/08 03:41:15;;;;;;;11.33;9.53;;;9.00;44.10;;;;;;5074514;28;20413;-71
2022/05/08 03:43:42;;;;;;;11.50;8.57;;;9.10;43.80;;;;;;5073499;28;20442;-71
2022/05/08 03:46:07;;;;;;;9.73;8.60;;;9.10;43.70;;;;;;5074636;28;20413;-71
2022/05/08 03:48:34;;;;;;;10.40;9.33;;;9.10;43.00;;;;;;5074464;28;20419;-70
2022/05/08 03:51:00;;;;;;;10.83;9.70;;;9.10;43.30;;;;;;5072224;28;20221;-71
2022/05/08 03:53:26;;;;;;;9.20;8.17;;;9.10;43.50;;;;;;5073484;28;20478;-70
2022/05/08 03:55:52;;;;;;;9.23;8.33;;;9.10;43.30;;;;;;5073647;28;20416;-70
2022/05/08 03:58:17;;;;;;;10.90;9.77;;;9.00;43.40;;;;;;5073384;28;20201;-70
2022/05/08 04:00:43;;;;;;;9.70;7.80;;;9.00;43.80;;;;;;5073468;28;20193;-71
2022/05/08 04:03:08;;;;;;;8.90;7.50;;;9.00;43.10;;;;;;5072454;28;20183;-70
2022/05/08 04:05:34;;;;;;;10.70;8.03;;;9.00;43.10;;;;;;5073803;28;20186;-70
2022/05/08 04:07:59;;;;;;;13.80;7.10;;;8.90;42.00;;;;;;5073209;28;20242;-70
2022/05/08 04:10:25;;;;;;;10.00;7.93;;;8.80;42.50;;;;;;5074107;28;20252;-70
2022/05/08 04:12:50;;;;;;;9.93;8.57;;;8.80;42.90;;;;;;5072951;28;20248;-70
2022/05/08 04:18:00;;;;;;;9.47;7.57;;;8.80;42.70;;;;;;5072721;28;20266;-70
2022/05/08 04:20:26;;;;;;;8.63;7.07;;;8.80;43.00;;;;;;5074999;28;20476;-70
2022/05/08 04:25:35;;;;;;;9.13;7.40;;;9.00;42.50;;;;;;5074954;28;20193;-70
2022/05/08 04:28:01;;;;;;;9.07;7.63;;;9.00;43.20;;;;;;5074702;28;20420;-70
2022/05/08 04:30:26;;;;;;;10.70;9.00;;;8.90;43.90;;;;;;5074642;28;20577;-68
2022/05/08 04:32:52;;;;;;;10.90;8.23;;;8.90;44.40;;;;;;5074604;28;20202;-69
2022/05/08 04:35:17;;;;;;;10.00;6.77;;;8.90;44.30;;;;;;5074447;28;20617;-69
2022/05/08 04:37:44;;;;;;;11.13;7.37;;;9.00;44.80;;;;;;5076006;28;20175;-68
2022/05/08 04:40:09;;;;;;;10.47;8.90;;;9.10;44.10;;;;;;5074478;28;20276;-68
2022/05/08 04:42:35;;;;;;;9.77;8.80;;;9.10;44.00;;;;;;5074371;28;20413;-69
2022/05/08 04:45:00;;;;;;;9.07;8.13;;;9.00;44.40;;;;;;5073589;28;20186;-69
2022/05/08 04:47:28;;;;;;;10.03;7.90;;;9.00;46.60;;;;;;5071474;28;20196;-69
2022/05/08 04:49:53;;;;;;;9.40;8.40;;;9.10;45.80;;;;;;5071478;28;20194;-69
2022/05/08 04:52:19;;;;;;;10.27;9.13;;;9.10;45.90;;;;;;5072223;28;20975;-68
2022/05/08 04:54:44;;;;;;;9.47;8.57;;;9.30;45.00;;;;;;5073365;28;20586;-69
2022/05/08 04:57:10;;;;;;;12.77;10.70;;;9.40;43.90;;;;;;5073721;28;20610;-70
2022/05/08 04:59:35;;;;;;;11.87;10.37;;;9.50;44.80;;;;;;5073504;28;20241;-69
2022/05/08 05:02:02;;;;;;;12.90;10.80;;;9.60;43.60;;;;;;5072484;28;20180;-73
2022/05/08 05:04:28;;;;;;;13.27;12.07;;;9.80;42.10;;;;;;5073222;28;20185;-69
2022/05/08 05:06:54;;;;;;;12.40;11.07;;;9.70;42.90;;;;;;5072711;28;20451;-69
2022/05/08 05:09:19;;;;;;;11.73;10.40;;;9.70;42.50;;;;;;5071471;28;20442;-69
2022/05/08 05:11:45;;;;;;;14.07;10.93;;;9.80;44.30;;;;;;5071972;28;20887;-69
2022/05/08 05:14:10;;;;;;;15.03;13.50;;;9.90;43.80;;;;;;5070750;28;20219;-69
2022/05/08 05:16:36;;;;;;;11.60;10.40;;;10.10;42.10;;;;;;5072096;28;20177;-69
2022/05/08 05:19:02;;;;;;;10.07;8.90;;;10.30;39.60;;;;;;5071323;28;20209;-69
2022/05/08 05:21:27;;;;;;;14.53;10.80;;;10.50;39.10;;;;;;5070485;28;20188;-68
2022/05/08 05:23:53;;;;;;;10.03;8.07;;;10.60;38.40;;;;;;5071779;28;20279;-69
2022/05/08 05:26:18;;;;;;;9.30;8.30;;;10.60;39.30;;;;;;5071608;28;20171;-68
2022/05/08 05:28:44;;;;;;;13.33;11.37;;;10.80;39.90;;;;;;5071816;28;20661;-69
2022/05/08 05:31:12;;;;;;;11.33;9.83;;;10.90;39.40;;;;;;5072294;28;20667;-69
2022/05/08 05:33:38;;;;;;;8.90;7.60;;;11.10;36.30;;;;;;5072694;28;20892;-69
2022/05/08 05:36:03;;;;;;;11.27;9.93;;;11.40;36.40;;;;;;5072819;28;20902;-69
2022/05/08 05:38:29;;;;;;;9.30;8.40;;;11.60;34.90;;;;;;5071795;28;20418;-68
2022/05/08 05:40:54;;;;;;;8.67;7.13;;;11.80;34.90;;;;;;5072216;28;20191;-68
2022/05/08 05:43:20;;;;;;;10.30;9.40;;;11.90;33.70;;;;;;5072269;28;20189;-69
2022/05/08 05:45:45;;;;;;;10.87;9.77;;;12.10;32.80;;;;;;5062193;28;20190;-69
2022/05/08 05:48:11;;;;;;;12.07;9.90;;;12.30;33.00;;;;;;5048714;28;20191;-69
2022/05/08 05:50:37;;;;;;;10.63;9.63;;;12.30;31.30;;;;;;5051394;28;20202;-68
2022/05/08 05:53:03;;;;;;;11.10;10.00;;;12.40;31.60;;;;;;5067803;28;20211;-69
2022/05/08 05:55:28;;;;;;;9.80;8.87;;;12.60;31.70;;;;;;5052751;28;20571;-69
2022/05/08 05:57:54;;;;;;;10.60;9.67;;;12.80;31.70;;;;;;5052171;28;20170;-69
2022/05/08 06:00:20;;;;;;;11.33;10.43;;;13.00;30.90;;;;;;5052783;28;20207;-69
2022/05/08 06:02:47;;;;;;;10.40;9.50;;;13.20;30.20;;;;;;5052526;28;20253;-69
2022/05/08 06:05:14;;;;;;;11.13;10.20;;;13.40;29.10;;;;;;5052626;28;20467;-69
2022/05/08 06:07:42;;;;;;;17.07;13.20;;;13.60;27.30;;;;;;5053899;28;20431;-69
2022/05/08 06:10:09;;;;;;;11.50;10.60;;;13.70;26.40;;;;;;5056658;28;20493;-69
2022/05/08 06:12:35;;;;;;;14.50;13.17;;;13.40;26.90;;;;;;5056609;28;20519;-69
2022/05/08 06:15:01;;;;;;;26.13;12.40;;;13.20;26.50;;;;;;5056713;28;20846;-69
2022/05/08 06:17:27;;;;;;;13.57;12.27;;;13.40;28.00;;;;;;5055718;28;20412;-69
2022/05/08 06:19:52;;;;;;;13.97;12.83;;;13.90;26.90;;;;;;5055358;28;20449;-69
2022/05/08 06:22:19;;;;;;;13.07;11.83;;;14.20;25.50;;;;;;5055623;28;20184;-68
2022/05/08 06:24:44;;;;;;;14.40;13.17;;;14.50;25.70;;;;;;5055973;28;20310;-70
2022/05/08 06:27:10;;;;;;;16.10;14.73;;;14.70;24.20;;;;;;5055825;28;20505;-70
2022/05/08 06:29:36;;;;;;;13.80;12.60;;;14.20;25.50;;;;;;5055897;28;20263;-71
2022/05/08 06:32:02;;;;;;;15.60;14.30;;;14.50;25.70;;;;;;5055396;28;20487;-69
2022/05/08 06:34:27;;;;;;;12.47;11.57;;;14.40;25.00;;;;;;5056062;28;20176;-69
2022/05/08 06:36:54;;;;;;;16.50;15.10;;;14.90;25.30;;;;;;5055479;28;20416;-69
2022/05/08 06:39:20;;;;;;;16.70;15.40;;;15.50;24.30;;;;;;5054675;28;20282;-71
2022/05/08 06:41:47;;;;;;;14.53;13.53;;;15.90;22.40;;;;;;5068678;28;20421;-72
2022/05/08 06:44:15;;;;;;;14.70;13.53;;;16.40;22.80;;;;;;5053991;28;20465;-72
2022/05/08 06:46:41;;;;;;;17.40;16.10;;;16.80;20.60;;;;;;5054879;28;20784;-72
2022/05/08 06:49:07;;;;;;;15.13;14.13;;;16.00;21.80;;;;;;5054230;28;20432;-73
2022/05/08 06:51:34;;;;;;;15.80;14.40;;;17.10;21.40;;;;;;5054593;28;20221;-72
2022/05/08 06:54:00;;;;;;;14.27;13.50;;;16.90;20.40;;;;;;5054585;28;20406;-73
2022/05/08 06:56:26;;;;;;;15.40;14.30;;;18.20;19.70;;;;;;5054459;28;20410;-73
2022/05/08 07:01:38;;;;;;;17.50;16.40;;;19.90;14.00;;;;;;5054309;28;20466;-73
2022/05/08 07:04:06;;;;;;;17.83;16.83;;;20.20;16.10;;;;;;5053396;28;20779;-73
2022/05/08 07:06:32;;;;;;;19.50;18.30;;;20.20;15.60;;;;;;5052969;28;20413;-73
2022/05/08 07:08:58;;;;;;;19.10;17.90;;;21.70;12.30;;;;;;5052050;28;20427;-73
2022/05/08 07:11:25;;;;;;;20.00;18.80;;;22.50;11.50;;;;;;5051967;28;20210;-73
2022/05/08 07:13:50;;;;;;;18.93;17.67;;;23.40;11.30;;;;;;5052582;28;20420;-73
2022/05/08 07:16:16;;;;;;;19.07;18.07;;;24.20;9.50;;;;;;5051961;28;20965;-73
2022/05/08 07:18:41;;;;;;;20.03;18.70;;;24.40;9.10;;;;;;5067761;28;20595;-73
2022/05/08 07:21:07;;;;;;;19.17;18.13;;;25.20;9.10;;;;;;5053503;28;20182;-73
2022/05/08 07:23:32;;;;;;;20.17;18.97;;;26.10;7.80;;;;;;5053968;28;20254;-73
2022/05/08 07:25:58;;;;;;;18.87;17.80;;;25.80;6.30;;;;;;5053987;28;20178;-73
2022/05/08 07:28:24;;;;;;;19.20;18.23;;;25.90;6.90;;;;;;5053561;28;20174;-73
2022/05/08 07:30:50;;;;;;;18.73;17.83;;;25.90;6.20;;;;;;5053625;28;20206;-73
2022/05/08 07:33:16;;;;;;;20.77;19.67;;;26.40;6.10;;;;;;5053567;28;20741;-73
2022/05/08 07:38:30;;;;;;;22.13;18.80;;;27.00;5.50;;;;;;5053752;28;20404;-74
2022/05/08 07:40:57;;;;;;;19.67;18.63;;;27.80;4.90;;;;;;5053611;28;20448;-73
2022/05/08 07:43:23;;;;;;;20.20;19.00;;;28.00;3.50;;;;;;5053627;28;20420;-74
2022/05/08 07:45:48;;;;;;;19.43;18.37;;;28.10;3.30;;;;;;5053860;28;20503;-73
2022/05/08 07:48:16;;;;;;;17.80;16.93;;;27.20;4.10;;;;;;5053395;28;20178;-73
2022/05/08 07:50:42;;;;;;;17.83;16.93;;;24.30;5.50;;;;;;5053688;28;20191;-73
2022/05/08 07:53:07;;;;;;;18.60;17.60;;;24.80;7.80;;;;;;5068901;28;21056;-73
2022/05/08 07:55:33;;;;;;;18.20;17.30;;;23.50;7.60;;;;;;5053466;28;20162;-73
2022/05/08 07:57:58;;;;;;;19.23;18.10;;;22.30;9.20;;;;;;5068551;28;20205;-73
2022/05/08 08:00:24;;;;;;;18.83;17.63;;;21.80;9.70;;;;;;5052012;28;20551;-72
2022/05/08 08:02:50;;;;;;;16.30;15.30;;;21.70;10.20;;;;;;5053184;28;20186;-73
2022/05/08 08:05:15;;;;;;;17.90;16.80;;;20.50;12.00;;;;;;5051988;28;20179;-73
2022/05/08 08:07:41;;;;;;;16.70;15.90;;;21.50;11.80;;;;;;5052961;28;20236;-73
2022/05/08 08:10:07;;;;;;;18.10;17.10;;;22.10;11.30;;;;;;5053375;28;20241;-73
2022/05/08 08:12:33;;;;;;;19.77;18.77;;;22.10;9.90;;;;;;5052780;28;20211;-73
2022/05/08 08:14:59;;;;;;;18.40;17.40;;;21.00;12.10;;;;;;5052965;28;20417;-73
2022/05/08 08:17:26;;;;;;;18.90;17.70;;;21.70;12.50;;;;;;5052491;28;20193;-73
2022/05/08 08:19:52;;;;;;;18.03;17.03;;;21.60;11.10;;;;;;5067934;28;20460;-73
2022/05/08 08:22:17;;;;;;;16.17;15.17;;;20.50;13.00;;;;;;5052729;28;20455;-73
2022/05/08 08:24:43;;;;;;;20.10;18.93;;;19.80;15.00;;;;;;5052609;28;20405;-72
2022/05/08 08:27:08;;;;;;;18.77;17.53;;;20.50;14.30;;;;;;5067786;28;20178;-73
2022/05/08 08:29:34;;;;;;;19.50;18.30;;;20.40;14.20;;;;;;5052046;28;20194;-73
2022/05/08 08:32:00;;;;;;;17.80;16.80;;;20.10;14.40;;;;;;5052662;28;20348;-73
2022/05/08 08:34:26;;;;;;;17.50;16.50;;;19.60;15.60;;;;;;5067805;28;20170;-73
2022/05/08 08:36:52;;;;;;;19.33;18.03;;;18.80;15.80;;;;;;5052541;28;20546;-73
2022/05/08 08:39:18;;;;;;;16.73;15.63;;;19.30;16.40;;;;;;5052075;28;20793;-73
2022/05/08 08:41:53;;;;;;;19.07;17.93;;;19.90;16.20;;;;;;5067651;28;20413;-73
2022/05/08 08:49:52;;;;;;;16.90;15.80;;;19.50;16.20;;;;;;5052438;28;20436;-73
2022/05/08 08:52:20;;;;;;;15.87;14.87;;;19.10;15.90;;;;;;5052253;28;20984;-72
2022/05/08 08:54:46;;;;;;;17.63;16.63;;;19.00;17.80;;;;;;5052298;28;20417;-73
2022/05/08 08:57:12;;;;;;;17.07;16.07;;;19.30;17.50;;;;;;5051971;28;20409;-73
2022/05/08 08:59:37;;;;;;;18.40;17.00;;;19.40;16.40;;;;;;5052003;28;20208;-73
2022/05/08 09:02:03;;;;;;;19.47;18.13;;;19.10;17.80;;;;;;5067321;28;20543;-72
2022/05/08 09:04:29;;;;;;;16.50;15.50;;;19.00;17.00;;;;;;5067516;28;20186;-73
2022/05/08 09:06:54;;;;;;;17.10;15.97;;;18.70;18.00;;;;;;5067741;28;20182;-72
2022/05/08 09:09:26;;;;;;;17.10;16.00;;;18.40;18.50;;;;;;5067193;28;20437;-73
2022/05/08 09:11:55;;;;;;;18.30;17.10;;;18.10;18.40;;;;;;5051815;28;20198;-73
2022/05/08 09:14:34;;;;;;;16.00;15.00;;;18.20;18.60;;;;;;5052119;28;20482;-73
2022/05/08 09:17:01;;;;;;;31.20;16.70;;;18.10;18.40;;;;;;5067354;28;20890;-72
2022/05/08 09:19:37;;;;;;;17.67;16.40;;;17.60;19.30;;;;;;5051232;28;20453;-72
2022/05/08 09:22:04;;;;;;;16.90;15.33;;;17.50;19.90;;;;;;5051769;28;20463;-73
2022/05/08 09:24:30;;;;;;;16.10;15.00;;;17.90;19.50;;;;;;5051705;28;20419;-74
2022/05/08 09:27:09;;;;;;;15.40;14.37;;;18.10;19.00;;;;;;5051705;28;20405;-75
2022/05/08 09:29:35;;;;;;;14.87;13.80;;;17.80;19.40;;;;;;5051450;28;20424;-74
2022/05/08 09:32:01;;;;;;;16.27;15.07;;;18.00;19.30;;;;;;5051518;28;20807;-74
2022/05/08 09:34:26;;;;;;;16.03;14.60;;;18.00;19.60;;;;;;5067046;28;20593;-74
2022/05/08 09:37:08;;;;;;;14.30;13.13;;;17.70;19.80;;;;;;5051601;28;20175;-75
2022/05/08 09:39:34;;;;;;;14.90;13.90;;;17.90;19.50;;;;;;5051447;28;20190;-72
2022/05/08 09:41:59;;;;;;;15.50;14.47;;;17.90;19.20;;;;;;5066020;28;20421;-72
2022/05/08 09:44:25;;;;;;;13.63;12.80;;;17.80;19.20;;;;;;5051449;28;20259;-73
2022/05/08 09:46:51;;;;;;;15.33;14.30;;;17.90;17.90;;;;;;5050202;28;20179;-73
2022/05/08 09:49:24;;;;;;;15.00;13.93;;;17.90;18.30;;;;;;5051089;28;20201;-73
2022/05/08 09:51:51;;;;;;;17.87;16.57;;;18.30;17.70;;;;;;5051402;28;20198;-73
2022/05/08 09:54:18;;;;;;;17.40;16.03;;;18.50;17.40;;;;;;5051543;28;20495;-73
2022/05/08 09:56:45;;;;;;;14.43;13.53;;;18.60;16.50;;;;;;5051646;28;20412;-73
2022/05/08 09:59:12;;;;;;;17.80;16.27;;;18.80;17.40;;;;;;5051080;28;20790;-73
2022/05/08 10:01:38;;;;;;;18.73;17.23;;;18.80;16.50;;;;;;5051606;28;20405;-73
2022/05/08 10:04:04;;;;;;;16.73;15.83;;;18.60;16.60;;;;;;5051302;28;20902;-72
2022/05/08 10:06:32;;;;;;;15.20;14.30;;;18.90;17.00;;;;;;5051175;28;20416;-73
2022/05/08 10:14:30;;;;;;;16.00;14.80;;;19.00;16.70;;;;;;5051214;28;20494;-73
2022/05/08 10:17:04;;;;;;;15.47;14.50;;;18.90;16.60;;;;;;5051305;28;20441;-73
2022/05/08 10:19:30;;;;;;;15.50;14.53;;;19.10;16.20;;;;;;5067070;28;20448;-76
2022/05/08 10:21:55;;;;;;;17.90;16.70;;;19.20;16.60;;;;;;5053971;28;20419;-75
2022/05/08 10:24:34;;;;;;;15.87;14.93;;;19.20;16.00;;;;;;5068895;28;20185;-75
2022/05/08 10:27:16;;;;;;;17.03;15.73;;;19.20;16.60;;;;;;5053426;28;20201;-75
2022/05/08 10:29:49;;;;;;;15.67;14.73;;;19.40;16.10;;;;;;5053765;28;20443;-75
2022/05/08 10:32:31;;;;;;;16.13;15.23;;;19.60;15.70;;;;;;5053146;28;20460;-75
2022/05/08 10:35:20;;;;;;;16.37;14.97;;;19.50;15.80;;;;;;5052875;28;20429;-76
2022/05/08 10:38:06;;;;;;;17.23;16.17;;;19.50;16.20;;;;;;5052376;28;20542;-75
2022/05/08 10:40:33;;;;;;;15.73;14.73;;;19.30;16.10;;;;;;5048349;28;20443;-75
2022/05/08 10:43:25;;;;;;;16.00;15.00;;;19.40;16.40;;;;;;5067914;28;20424;-75
2022/05/08 10:45:52;;;;;;;13.93;13.23;;;19.00;15.80;;;;;;5051371;28;20455;-73
2022/05/08 10:48:19;;;;;;;15.33;14.43;;;19.00;16.40;;;;;;5052451;28;20472;-75
2022/05/08 10:50:49;;;;;;;15.33;14.47;;;18.90;16.30;;;;;;5052162;28;20538;-76
2022/05/08 10:53:36;;;;;;;15.00;14.10;;;19.00;16.50;;;;;;5069007;28;20602;-76
2022/05/08 10:56:06;;;;;;;13.37;12.73;;;18.90;16.50;;;;;;5056794;28;20797;-76
2022/05/08 10:58:33;;;;;;;15.27;14.43;;;19.20;16.00;;;;;;5057261;28;20424;-75
2022/05/08 11:01:03;;;;;;;15.93;14.50;;;19.30;16.10;;;;;;5058643;28;20781;-75
2022/05/08 11:03:29;;;;;;;15.17;14.27;;;19.50;16.30;;;;;;5057350;28;20419;-75
2022/05/08 11:05:54;;;;;;;17.13;16.00;;;19.50;16.00;;;;;;5061433;28;20493;-75
2022/05/08 11:08:29;;;;;;;16.63;15.63;;;19.50;16.20;;;;;;5073835;28;20178;-75
2022/05/08 11:11:10;;;;;;;16.77;15.70;;;19.70;16.10;;;;;;5072501;28;20443;-75
2022/05/08 11:13:44;;;;;;;17.07;16.00;;;19.50;16.20;;;;;;5072174;28;20424;-76
2022/05/08 11:16:11;;;;;;;16.63;15.63;;;19.20;16.00;;;;;;5057244;28;20405;-75
2022/05/08 11:18:37;;;;;;;15.17;14.37;;;18.90;16.80;;;;;;5056889;28;20417;-76
2022/05/08 11:21:08;;;;;;;15.60;14.60;;;19.20;17.10;;;;;;5057133;28;20456;-73
2022/05/08 11:23:35;;;;;;;15.77;14.53;;;19.40;16.10;;;;;;5054039;28;20467;-73
2022/05/08 11:26:06;;;;;;;15.17;14.27;;;19.50;16.20;;;;;;5054428;28;20903;-73
2022/05/08 11:28:32;;;;;;;15.17;14.30;;;19.40;16.10;;;;;;5069303;28;20416;-73
2022/05/08 11:30:59;;;;;;;15.33;14.47;;;19.40;16.10;;;;;;5052943;28;20448;-72
2022/05/08 11:36:25;;;;;;;14.00;13.07;;;19.30;16.40;;;;;;5074319;28;20435;-73
2022/05/08 11:38:54;;;;;;;16.20;15.30;;;19.80;15.90;;;;;;5073604;28;20850;-73
2022/05/08 11:41:22;;;;;;;15.50;14.50;;;20.10;15.30;;;;;;5072500;28;20889;-72
2022/05/08 11:43:50;;;;;;;14.73;13.93;;;19.40;16.10;;;;;;5073881;28;20454;-73
2022/05/08 11:46:17;;;;;;;15.07;14.17;;;19.60;16.20;;;;;;5058274;28;20441;-72
2022/05/08 11:48:47;;;;;;;16.63;15.60;;;19.60;16.00;;;;;;5053182;28;20428;-73
2022/05/08 11:51:21;;;;;;;15.87;14.97;;;20.10;15.00;;;;;;5053304;28;20446;-73
2022/05/08 11:53:49;;;;;;;16.33;15.43;;;20.40;14.60;;;;;;5053702;28;20405;-74
2022/05/08 11:56:30;;;;;;;15.50;14.60;;;20.10;14.50;;;;;;5052134;28;20421;-73
2022/05/08 11:58:57;;;;;;;15.30;14.50;;;20.30;14.50;;;;;;5053600;28;21002;-73
2022/05/08 12:01:31;;;;;;;15.13;14.33;;;20.40;14.40;;;;;;5053532;28;20409;-69
2022/05/08 12:04:30;;;;;;;15.07;14.27;;;20.10;13.90;;;;;;5053331;28;20452;-67
2022/05/08 12:06:59;;;;;;;15.20;14.50;;;20.50;13.50;;;;;;5042006;28;20509;-67
2022/05/08 12:09:33;;;;;;;16.87;15.97;;;20.70;12.90;;;;;;5052990;28;20793;-67
2022/05/08 12:12:26;;;;;;;16.83;16.03;;;20.70;13.30;;;;;;5053230;28;20953;-68
2022/05/08 12:14:55;;;;;;;15.40;14.60;;;20.70;13.40;;;;;;5053400;28;20406;-68
2022/05/08 12:17:21;;;;;;;17.10;16.13;;;20.60;12.60;;;;;;5053768;28;20398;-67
2022/05/08 12:19:54;;;;;;;15.20;14.50;;;21.00;12.50;;;;;;5052931;28;20455;-68
2022/05/08 12:22:25;;;;;;;15.63;14.93;;;21.30;12.40;;;;;;5052125;28;20488;-67
2022/05/08 12:24:56;;;;;;;16.53;15.73;;;21.60;12.00;;;;;;5053621;28;20401;-67
2022/05/08 12:27:22;;;;;;;15.20;14.50;;;21.60;10.70;;;;;;5052625;28;20956;-68
2022/05/08 12:29:48;;;;;;;16.60;15.60;;;21.10;11.20;;;;;;5052836;28;20433;-67
2022/05/08 12:32:17;;;;;;;17.57;16.77;;;20.80;11.70;;;;;;5053049;28;20480;-67
2022/05/08 12:34:44;;;;;;;14.90;14.30;;;20.70;11.80;;;;;;5052666;28;20416;-67
2022/05/08 12:37:12;;;;;;;14.90;14.20;;;19.80;13.20;;;;;;5051196;28;20467;-70
2022/05/08 12:39:39;;;;;;;14.77;14.07;;;19.80;14.00;;;;;;5052412;28;20432;-67
2022/05/08 12:42:05;;;;;;;14.20;13.60;;;19.40;13.10;;;;;;5052513;28;20485;-69
2022/05/08 12:44:32;;;;;;;14.70;14.00;;;19.50;12.00;;;;;;5052484;28;20421;-67
2022/05/08 12:46:58;;;;;;;15.57;14.87;;;19.50;11.70;;;;;;5065510;28;20435;-67
2022/05/08 12:49:23;;;;;;;14.73;14.03;;;19.40;11.70;;;;;;5072019;28;20436;-67
2022/05/08 12:51:49;;;;;;;15.43;14.73;;;19.30;11.60;;;;;;5072406;28;20625;-66
2022/05/08 12:54:15;;;;;;;15.30;14.50;;;19.40;11.70;;;;;;5072210;28;20889;-68
2022/05/08 12:56:41;;;;;;;14.57;13.90;;;19.60;11.80;;;;;;5072330;28;20648;-67
2022/05/08 13:01:51;;;;;;;15.57;14.77;;;19.90;11.60;;;;;;5073030;28;20529;-67
2022/05/08 13:04:17;;;;;;;15.23;14.53;;;20.20;11.10;;;;;;5073688;28;20914;-67
2022/05/08 13:06:42;;;;;;;14.23;13.63;;;20.60;10.60;;;;;;5073267;28;20426;-68
2022/05/08 13:09:08;;;;;;;14.53;13.93;;;20.90;9.70;;;;;;5071986;28;20663;-67